createdAt,value
2022-09-15T00:01:09.703Z,14.48
2022-09-15T00:03:37.404Z,13.90
2022-09-15T00:06:04.450Z,14.20
2022-09-15T00:08:31.496Z,14.77
2022-09-15T00:11:07.874Z,15.20
2022-09-15T00:13:36.308Z,14.38
2022-09-15T00:16:04.234Z,14.32
2022-09-15T00:18:31.488Z,14.13
2022-09-15T00:20:58.202Z,13.93
2022-09-15T00:23:33.138Z,14.65
2022-09-15T00:25:59.836Z,13.40
2022-09-15T00:28:26.443Z,14.35
2022-09-15T00:30:54.991Z,15.43
2022-09-15T00:33:22.923Z,15.07
2022-09-15T00:35:52.614Z,15.15
2022-09-15T00:40:51.987Z,16.02
2022-09-15T00:43:23.396Z,15.95
2022-09-15T00:45:50.762Z,15.48
2022-09-15T00:48:21.533Z,15.30
2022-09-15T00:50:54.213Z,15.77
2022-09-15T00:53:23.678Z,16.67
2022-09-15T00:55:51.324Z,16.85
2022-09-15T00:58:28.759Z,16.58
2022-09-15T01:01:00.654Z,16.63
2022-09-15T01:03:30.515Z,17.45
2022-09-15T01:08:49.233Z,17.42
2022-09-15T01:11:17.178Z,17.83
2022-09-15T01:13:44.692Z,18.83
2022-09-15T01:16:32.722Z,17.15
2022-09-15T01:19:12.848Z,17.67
2022-09-15T01:21:50.439Z,16.58
2022-09-15T01:24:41.726Z,17.63
2022-09-15T01:27:40.549Z,16.65
2022-09-15T01:30:06.607Z,15.95
2022-09-15T01:33:06.707Z,15.85
2022-09-15T01:35:42.309Z,15.30
2022-09-15T01:38:23.921Z,16.67
2022-09-15T01:40:59.036Z,16.90
2022-09-15T01:43:29.867Z,15.52
2022-09-15T01:45:59.875Z,17.50
2022-09-15T01:48:28.318Z,15.35
2022-09-15T01:50:58.787Z,15.65
2022-09-15T01:53:28.815Z,16.30
2022-09-15T01:56:06.713Z,15.23
2022-09-15T01:58:34.777Z,15.52
2022-09-15T02:01:20.298Z,15.82
2022-09-15T02:04:01.236Z,16.42
2022-09-15T02:06:37.425Z,14.63
2022-09-15T02:09:18.145Z,15.38
2022-09-15T02:11:58.250Z,15.55
2022-09-15T02:15:05.535Z,16.35
2022-09-15T02:17:35.514Z,15.55
2022-09-15T02:20:17.844Z,15.55
2022-09-15T02:22:54.007Z,15.63
2022-09-15T02:25:28.771Z,15.15
2022-09-15T02:28:00.442Z,16.15
2022-09-15T02:30:29.269Z,17.23
2022-09-15T02:32:59.529Z,16.63
2022-09-15T02:35:29.767Z,16.73
2022-09-15T02:37:56.931Z,14.38
2022-09-15T02:40:24.313Z,14.43
2022-09-15T02:42:56.443Z,14.50
2022-09-15T02:45:24.992Z,15.38
2022-09-15T02:47:51.778Z,13.82
2022-09-15T02:50:19.355Z,15.25
2022-09-15T02:52:46.295Z,14.75
2022-09-15T02:55:13.089Z,13.82
2022-09-15T02:57:40.848Z,14.02
2022-09-15T03:00:15.087Z,14.13
2022-09-15T03:02:44.929Z,13.40
2022-09-15T03:05:15.243Z,13.02
2022-09-15T03:07:42.349Z,13.25
2022-09-15T03:10:12.120Z,13.30
2022-09-15T03:15:11.825Z,13.43
2022-09-15T03:17:41.693Z,13.35
2022-09-15T03:20:11.105Z,13.80
2022-09-15T03:22:38.349Z,15.27
2022-09-15T03:25:05.704Z,14.30
2022-09-15T03:27:33.145Z,15.10
2022-09-15T03:30:00.865Z,14.07
2022-09-15T03:32:27.609Z,13.80
2022-09-15T03:34:58.217Z,13.93
2022-09-15T03:37:25.573Z,13.73
2022-09-15T03:39:52.244Z,13.38
2022-09-15T03:42:19.931Z,14.10
2022-09-15T03:44:46.552Z,13.93
2022-09-15T03:47:13.278Z,13.35
2022-09-15T03:49:39.954Z,13.60
2022-09-15T03:52:06.670Z,13.68
2022-09-15T03:54:33.377Z,14.25
2022-09-15T03:57:00.029Z,12.77
2022-09-15T03:59:26.694Z,13.95
2022-09-15T04:01:55.079Z,12.85
2022-09-15T04:04:21.796Z,13.68
2022-09-15T04:06:48.436Z,14.60
2022-09-15T04:09:15.306Z,14.02
2022-09-15T04:11:42.883Z,14.10
2022-09-15T04:14:09.550Z,13.93
2022-09-15T04:16:36.690Z,13.93
2022-09-15T04:19:03.660Z,14.73
2022-09-15T04:21:32.126Z,13.82
2022-09-15T04:23:59.099Z,19.85
2022-09-15T04:26:32.463Z,14.77
2022-09-15T04:29:04.202Z,15.52
2022-09-15T04:31:32.479Z,14.18
2022-09-15T04:33:59.857Z,14.82
2022-09-15T04:36:28.463Z,13.82
2022-09-15T04:38:55.856Z,15.10
2022-09-15T04:41:23.341Z,14.88
2022-09-15T04:43:50.489Z,15.43
2022-09-15T04:46:18.644Z,15.70
2022-09-15T04:48:46.295Z,15.05
2022-09-15T04:51:19.239Z,16.45
2022-09-15T04:53:48.892Z,15.68
2022-09-15T04:58:49.334Z,15.55
2022-09-15T05:01:28.821Z,14.43
2022-09-15T05:03:56.626Z,14.52
2022-09-15T05:06:27.917Z,13.88
2022-09-15T05:08:56.903Z,14.00
2022-09-15T05:11:25.705Z,14.13
2022-09-15T05:13:52.866Z,13.57
2022-09-15T05:16:22.140Z,13.57
2022-09-15T05:18:50.325Z,13.30
2022-09-15T05:21:20.028Z,13.57
2022-09-15T05:26:17.843Z,11.30
2022-09-15T05:28:45.063Z,12.63
2022-09-15T05:31:18.126Z,11.77
2022-09-15T05:33:46.235Z,13.02
2022-09-15T05:36:17.501Z,12.45
2022-09-15T05:38:45.076Z,12.25
2022-09-15T05:41:13.947Z,12.38
2022-09-15T05:43:40.615Z,11.15
2022-09-15T05:46:08.104Z,10.48
2022-09-15T05:48:35.358Z,31.58
2022-09-15T05:51:03.424Z,10.70
2022-09-15T05:53:31.239Z,11.23
2022-09-15T05:55:59.565Z,11.82
2022-09-15T05:58:27.536Z,10.98
2022-09-15T06:00:55.159Z,7.35
2022-09-15T06:03:27.530Z,4.60
2022-09-15T06:06:01.454Z,4.35
2022-09-15T06:08:33.343Z,3.13
2022-09-15T06:11:08.917Z,3.20
2022-09-15T06:13:36.544Z,3.35
2022-09-15T06:16:07.012Z,3.38
2022-09-15T06:18:36.009Z,2.22
2022-09-15T06:21:11.571Z,1.80
2022-09-15T06:23:38.566Z,2.75
2022-09-15T06:26:07.440Z,2.78
2022-09-15T06:28:34.057Z,2.30
2022-09-15T06:31:00.830Z,1.73
2022-09-15T06:33:27.729Z,1.55
2022-09-15T06:35:54.540Z,1.88
2022-09-15T06:38:21.269Z,1.92
2022-09-15T06:40:59.029Z,2.15
2022-09-15T06:43:26.346Z,2.00
2022-09-15T06:45:53.049Z,2.03
2022-09-15T06:48:24.829Z,1.17
2022-09-15T06:50:56.064Z,1.67
2022-09-15T06:53:22.934Z,1.23
2022-09-15T06:55:50.558Z,1.60
2022-09-15T06:58:17.430Z,1.60
2022-09-15T07:00:44.211Z,1.40
2022-09-15T07:03:11.052Z,2.10
2022-09-15T07:05:37.876Z,1.92
2022-09-15T07:08:04.520Z,1.70
2022-09-15T07:10:31.262Z,1.50
2022-09-15T07:12:59.372Z,1.58
2022-09-15T07:15:27.569Z,1.80
2022-09-15T07:17:54.276Z,2.17
2022-09-15T07:20:21.084Z,2.63
2022-09-15T07:22:47.743Z,2.78
2022-09-15T07:25:14.561Z,3.30
2022-09-15T07:27:41.181Z,4.05
2022-09-15T07:30:08.717Z,5.30
2022-09-15T07:32:35.512Z,4.15
2022-09-15T07:35:02.672Z,3.85
2022-09-15T07:37:29.574Z,3.53
2022-09-15T07:39:56.258Z,3.60
2022-09-15T07:42:22.949Z,4.05
2022-09-15T07:44:49.557Z,4.13
2022-09-15T07:47:16.598Z,4.80
2022-09-15T07:49:43.505Z,6.03
2022-09-15T07:52:10.358Z,5.78
2022-09-15T07:54:37.007Z,5.10
2022-09-15T07:57:05.964Z,6.53
2022-09-15T07:59:33.162Z,4.88
2022-09-15T08:01:59.871Z,4.05
2022-09-15T08:04:26.551Z,4.45
2022-09-15T08:06:53.188Z,7.25
2022-09-15T08:09:20.008Z,3.20
2022-09-15T08:11:46.673Z,2.83
2022-09-15T08:14:13.339Z,2.90
2022-09-15T08:16:40.079Z,2.63
2022-09-15T08:19:06.799Z,3.35
2022-09-15T08:21:33.538Z,4.07
2022-09-15T08:24:01.369Z,4.28
2022-09-15T08:26:29.277Z,4.18
2022-09-15T08:28:56.121Z,3.35
2022-09-15T08:31:24.518Z,2.88
2022-09-15T08:33:53.330Z,2.45
2022-09-15T08:36:20.568Z,2.60
2022-09-15T08:38:47.578Z,3.38
2022-09-15T08:41:20.422Z,3.50
2022-09-15T08:44:13.220Z,4.35
2022-09-15T08:46:50.685Z,3.65
2022-09-15T08:49:47.436Z,4.25
2022-09-15T08:52:26.834Z,3.90
2022-09-15T08:54:57.881Z,4.50
2022-09-15T08:57:26.601Z,4.35
2022-09-15T08:59:55.025Z,4.47
2022-09-15T09:02:31.643Z,4.53
2022-09-15T09:05:04.031Z,4.38
2022-09-15T09:07:41.960Z,4.95
2022-09-15T09:10:11.620Z,4.35
2022-09-15T09:13:09.949Z,4.60
2022-09-15T09:15:48.692Z,3.92
2022-09-15T09:18:49.813Z,3.78
2022-09-15T09:21:26.726Z,2.92
2022-09-15T09:23:57.780Z,2.50
2022-09-15T09:26:25.500Z,3.40
2022-09-15T09:29:06.576Z,2.88
2022-09-15T09:31:36.085Z,2.97
2022-09-15T09:36:54.976Z,2.92
2022-09-15T09:39:22.780Z,2.60
2022-09-15T09:41:51.237Z,2.60
2022-09-15T09:44:19.330Z,2.33
2022-09-15T09:46:47.039Z,2.90
2022-09-15T09:49:23.639Z,2.40
2022-09-15T09:51:53.186Z,2.58
2022-09-15T09:54:25.159Z,3.00
2022-09-15T09:56:53.733Z,2.53
2022-09-15T09:59:50.566Z,3.15
2022-09-15T10:02:21.465Z,3.13
2022-09-15T10:04:49.387Z,3.00
2022-09-15T10:07:20.184Z,3.00
2022-09-15T10:09:53.633Z,3.22
2022-09-15T10:12:24.379Z,3.22
2022-09-15T10:14:55.211Z,3.95
2022-09-15T10:17:25.892Z,3.63
2022-09-15T10:19:58.325Z,3.38
2022-09-15T10:22:38.076Z,3.50
2022-09-15T10:25:39.440Z,3.30
2022-09-15T10:28:14.645Z,3.20
2022-09-15T10:31:07.392Z,4.20
2022-09-15T10:33:42.766Z,3.85
2022-09-15T10:36:15.429Z,3.53
2022-09-15T10:39:10.822Z,3.38
2022-09-15T10:42:07.146Z,3.75
2022-09-15T10:45:11.151Z,4.95
2022-09-15T10:48:03.297Z,7.53
2022-09-15T10:50:50.826Z,6.28
2022-09-15T10:53:45.264Z,4.32
2022-09-15T10:56:21.791Z,4.68
2022-09-15T10:58:55.856Z,4.95
2022-09-15T11:01:28.554Z,4.60
2022-09-15T11:04:07.573Z,6.07
2022-09-15T11:07:03.883Z,8.32
2022-09-15T11:09:49.987Z,11.20
2022-09-15T11:12:16.828Z,6.68
2022-09-15T11:15:15.630Z,7.30
2022-09-15T11:18:01.213Z,6.20
2022-09-15T11:20:38.207Z,5.35
2022-09-15T11:23:29.367Z,4.72
2022-09-15T11:26:04.637Z,4.80
2022-09-15T11:28:39.021Z,5.25
2022-09-15T11:31:19.627Z,5.15
2022-09-15T11:34:11.592Z,6.90
2022-09-15T11:36:44.927Z,8.02
2022-09-15T11:39:24.141Z,8.57
2022-09-15T11:41:56.861Z,9.95
2022-09-15T11:44:49.863Z,9.45
2022-09-15T11:47:24.502Z,9.05
2022-09-15T11:50:11.329Z,8.23
2022-09-15T11:52:55.284Z,8.52
2022-09-15T11:55:45.235Z,8.57
2022-09-15T11:58:30.007Z,9.80
2022-09-15T12:01:11.676Z,10.05
2022-09-15T12:03:43.375Z,10.40
2022-09-15T12:06:16.257Z,11.05
2022-09-15T12:09:01.468Z,11.15
2022-09-15T12:11:30.461Z,11.23
2022-09-15T12:13:59.555Z,11.73
2022-09-15T12:16:27.730Z,12.65
2022-09-15T12:19:18.646Z,11.10
2022-09-15T12:21:59.518Z,12.85
2022-09-15T12:24:44.016Z,13.65
2022-09-15T12:27:17.056Z,14.48
2022-09-15T12:29:55.362Z,14.35
2022-09-15T12:32:25.803Z,15.00
2022-09-15T12:35:04.514Z,15.05
2022-09-15T12:37:39.858Z,15.90
2022-09-15T12:40:25.253Z,16.92
2022-09-15T12:42:52.645Z,16.90
2022-09-15T12:45:29.620Z,17.67
2022-09-15T12:48:07.165Z,17.83
2022-09-15T12:50:41.427Z,20.83
2022-09-15T12:53:28.637Z,21.83
2022-09-15T12:56:01.851Z,24.83
2022-09-15T12:58:49.255Z,24.85
2022-09-15T13:01:19.393Z,25.73
2022-09-15T13:03:46.513Z,22.98
2022-09-15T13:07:09.296Z,21.95
2022-09-15T13:09:55.933Z,18.05
2022-09-15T13:12:26.586Z,17.88
2022-09-15T13:14:56.650Z,18.02
2022-09-15T13:17:26.057Z,19.48
2022-09-15T13:20:01.736Z,18.25
2022-09-15T13:22:37.838Z,16.85
2022-09-15T13:25:15.906Z,15.80
2022-09-15T13:27:45.386Z,14.45
2022-09-15T13:30:21.529Z,14.18
2022-09-15T13:40:47.371Z,17.63
2022-09-15T13:43:53.890Z,16.45
2022-09-15T13:46:33.993Z,16.63
2022-09-15T13:49:19.483Z,17.35
2022-09-15T13:51:56.666Z,20.20
2022-09-15T13:54:23.308Z,51.33
2022-09-15T13:56:53.344Z,45.78
2022-09-15T13:59:25.691Z,18.73
2022-09-15T14:01:54.008Z,17.23
2022-09-15T14:04:25.727Z,16.83
2022-09-15T14:06:58.514Z,16.33
2022-09-15T14:09:35.395Z,17.48
2022-09-15T14:12:05.080Z,16.73
2022-09-15T14:17:01.976Z,22.75
2022-09-15T14:19:37.201Z,51.35
2022-09-15T14:22:28.310Z,20.08
2022-09-15T14:24:57.959Z,17.98
2022-09-15T14:30:00.385Z,17.20
2022-09-15T14:32:28.895Z,15.73
2022-09-15T14:35:00.774Z,14.48
2022-09-15T14:37:29.618Z,12.95
2022-09-15T14:40:02.116Z,12.13
2022-09-15T14:42:32.637Z,11.48
2022-09-15T14:48:01.534Z,15.93
2022-09-15T14:50:33.341Z,11.48
2022-09-15T14:53:07.034Z,12.75
2022-09-15T14:55:40.522Z,26.27
2022-09-15T14:58:21.911Z,12.07
2022-09-15T15:00:54.771Z,12.80
2022-09-15T15:03:39.572Z,14.05
2022-09-15T15:06:35.621Z,13.20
2022-09-15T15:09:30.295Z,13.48
2022-09-15T15:12:06.509Z,39.20
2022-09-15T15:14:36.179Z,14.23
2022-09-15T15:19:39.196Z,8.30
2022-09-15T15:22:20.119Z,9.93
2022-09-15T15:24:49.777Z,10.27
2022-09-15T15:30:31.858Z,9.32
2022-09-15T15:33:03.031Z,10.20
2022-09-15T15:35:30.940Z,12.20
2022-09-15T15:38:27.193Z,12.30
2022-09-15T15:41:05.456Z,13.60
2022-09-15T15:43:32.350Z,10.38
2022-09-15T15:46:01.875Z,9.77
2022-09-15T15:48:35.427Z,7.55
2022-09-15T15:51:05.898Z,7.70
2022-09-15T15:53:32.668Z,8.23
2022-09-15T15:56:01.273Z,8.15
2022-09-15T15:58:28.266Z,15.88
2022-09-15T16:00:56.931Z,6.90
2022-09-15T16:03:24.745Z,7.50
2022-09-15T16:05:58.500Z,7.93
2022-09-15T16:08:30.200Z,8.20
2022-09-15T16:10:57.557Z,8.52
2022-09-15T16:13:26.012Z,6.88
2022-09-15T16:15:54.151Z,7.68
2022-09-15T16:18:21.947Z,6.88
2022-09-15T16:20:48.836Z,7.07
2022-09-15T16:23:18.834Z,7.35
2022-09-15T16:25:48.372Z,7.32
2022-09-15T16:28:15.496Z,12.13
2022-09-15T16:30:42.996Z,11.63
2022-09-15T16:33:21.464Z,13.50
2022-09-15T16:35:55.195Z,17.35
2022-09-15T16:38:25.596Z,16.17
2022-09-15T16:40:53.375Z,34.22
2022-09-15T16:43:22.283Z,23.95
2022-09-15T16:45:49.875Z,19.73
2022-09-15T16:48:16.698Z,14.68
2022-09-15T16:51:01.662Z,12.88
2022-09-15T16:53:33.016Z,13.05
2022-09-15T16:56:00.008Z,11.82
2022-09-15T16:58:26.773Z,13.15
2022-09-15T17:00:53.810Z,12.48
2022-09-15T17:03:24.079Z,13.68
2022-09-15T17:05:53.299Z,14.68
2022-09-15T17:08:23.586Z,15.50
2022-09-15T17:10:50.818Z,13.35
2022-09-15T17:13:20.443Z,17.85
2022-09-15T17:15:48.832Z,10.95
2022-09-15T17:18:16.686Z,10.43
2022-09-15T17:20:46.218Z,10.48
2022-09-15T17:23:20.761Z,10.35
2022-09-15T17:25:53.574Z,9.80
2022-09-15T17:28:22.895Z,8.90
2022-09-15T17:30:57.451Z,9.07
2022-09-15T17:33:26.750Z,12.10
2022-09-15T17:35:54.557Z,10.38
2022-09-15T17:38:22.653Z,9.18
2022-09-15T17:40:50.584Z,9.40
2022-09-15T17:43:19.779Z,30.40
2022-09-15T17:45:47.325Z,74.75
2022-09-15T17:48:14.043Z,60.10
2022-09-15T17:50:42.096Z,50.67
2022-09-15T17:53:15.562Z,26.40
2022-09-15T17:55:43.967Z,14.38
2022-09-15T17:58:10.879Z,11.07
2022-09-15T18:00:40.217Z,9.98
2022-09-15T18:03:19.899Z,10.63
2022-09-15T18:05:46.797Z,16.83
2022-09-15T18:08:16.825Z,21.17
2022-09-15T18:10:44.025Z,19.45
2022-09-15T18:13:17.518Z,12.70
2022-09-15T18:15:44.663Z,13.57
2022-09-15T18:18:20.668Z,13.35
2022-09-15T18:20:48.476Z,13.10
2022-09-15T18:23:19.794Z,15.02
2022-09-15T18:25:47.382Z,15.55
2022-09-15T18:28:17.716Z,13.57
2022-09-15T18:30:47.142Z,12.60
2022-09-15T18:33:22.576Z,13.40
2022-09-15T18:35:51.758Z,12.18
2022-09-15T18:38:20.336Z,14.13
2022-09-15T18:40:53.723Z,13.85
2022-09-15T18:43:22.930Z,13.70
2022-09-15T18:45:50.523Z,13.38
2022-09-15T18:48:17.937Z,13.45
2022-09-15T18:50:45.742Z,13.57
2022-09-15T18:53:12.975Z,13.15
2022-09-15T18:55:42.360Z,14.48
2022-09-15T18:58:10.276Z,14.75
2022-09-15T19:00:37.627Z,13.32
2022-09-15T19:03:07.034Z,14.43
2022-09-15T19:05:34.293Z,14.18
2022-09-15T19:08:02.067Z,15.45
2022-09-15T19:10:29.446Z,16.15
2022-09-15T19:12:56.260Z,14.77
2022-09-15T19:15:24.169Z,15.05
2022-09-15T19:17:51.004Z,15.73
2022-09-15T19:20:18.119Z,17.55
2022-09-15T19:22:44.916Z,16.27
2022-09-15T19:25:12.299Z,17.50
2022-09-15T19:27:39.953Z,18.05
2022-09-15T19:30:10.250Z,17.05
2022-09-15T19:32:38.469Z,17.48
2022-09-15T19:35:05.909Z,18.23
2022-09-15T19:37:37.445Z,17.48
2022-09-15T19:40:08.430Z,18.98
2022-09-15T19:42:35.865Z,17.38
2022-09-15T19:45:02.793Z,20.25
2022-09-15T19:47:29.788Z,17.60
2022-09-15T19:49:56.474Z,18.65
2022-09-15T19:52:23.111Z,18.00
2022-09-15T19:54:49.877Z,19.00
2022-09-15T19:57:16.636Z,20.02
2022-09-15T19:59:44.852Z,18.92
2022-09-15T20:02:12.631Z,19.17
2022-09-15T20:07:24.914Z,16.88
2022-09-15T20:09:53.448Z,17.02
2022-09-15T20:14:48.116Z,19.30
2022-09-15T20:17:15.696Z,18.27
2022-09-15T20:19:43.236Z,19.02
2022-09-15T20:22:10.180Z,19.30
2022-09-15T20:24:38.233Z,18.58
2022-09-15T20:27:05.793Z,17.90
2022-09-15T20:29:33.775Z,16.08
2022-09-15T20:32:00.618Z,17.45
2022-09-15T20:34:27.672Z,18.27
2022-09-15T20:36:55.015Z,16.92
2022-09-15T20:39:22.932Z,17.30
2022-09-15T20:41:50.333Z,17.98
2022-09-15T20:44:17.258Z,16.67
2022-09-15T20:46:44.286Z,17.90
2022-09-15T20:49:12.127Z,18.10
2022-09-15T20:51:40.207Z,16.23
2022-09-15T20:54:08.589Z,17.10
2022-09-15T20:56:36.258Z,17.33
2022-09-15T20:59:04.690Z,15.98
2022-09-15T21:01:37.605Z,16.25
2022-09-15T21:04:05.983Z,16.27
2022-09-15T21:06:33.022Z,16.13
2022-09-15T21:09:00.498Z,15.93
2022-09-15T21:11:29.203Z,15.30
2022-09-15T21:13:56.985Z,14.98
2022-09-15T21:16:26.654Z,13.50
2022-09-15T21:18:54.219Z,13.25
2022-09-15T21:21:25.297Z,14.38
2022-09-15T21:23:54.900Z,14.30
2022-09-15T21:26:24.547Z,12.75
2022-09-15T21:28:52.006Z,12.68
2022-09-15T21:31:26.259Z,13.13
2022-09-15T21:33:54.416Z,13.27
2022-09-15T21:36:24.000Z,14.02
2022-09-15T21:38:53.162Z,12.90
2022-09-15T21:41:22.402Z,15.40
2022-09-15T21:43:54.852Z,14.68
2022-09-15T21:46:25.374Z,16.15
2022-09-15T21:48:52.587Z,18.55
2022-09-15T21:51:24.758Z,16.95
2022-09-15T21:53:54.833Z,17.13
2022-09-15T21:58:49.193Z,20.98
2022-09-15T22:01:25.877Z,18.05
2022-09-15T22:03:58.575Z,16.60
2022-09-15T22:06:31.794Z,14.50
2022-09-15T22:09:00.328Z,14.93
2022-09-15T22:11:27.475Z,15.70
2022-09-15T22:13:54.388Z,13.68
2022-09-15T22:16:24.444Z,15.23
2022-09-15T22:18:52.116Z,15.07
2022-09-15T22:21:22.964Z,17.75
2022-09-15T22:23:51.315Z,17.88
2022-09-15T22:26:21.500Z,14.90
2022-09-15T22:28:48.993Z,16.15
2022-09-15T22:31:18.554Z,15.80
2022-09-15T22:33:46.130Z,16.35
2022-09-15T22:36:18.480Z,16.58
2022-09-15T22:38:46.283Z,16.17
2022-09-15T22:41:16.250Z,16.75
2022-09-15T22:43:49.151Z,15.27
2022-09-15T22:46:18.032Z,15.88
2022-09-15T22:48:44.858Z,15.13
2022-09-15T22:51:13.024Z,15.20
2022-09-15T22:53:39.858Z,15.50
2022-09-15T22:56:17.255Z,15.15
2022-09-15T22:58:44.467Z,15.13
2022-09-15T23:01:16.965Z,14.80
2022-09-15T23:03:48.136Z,14.45
2022-09-15T23:06:14.902Z,15.20
2022-09-15T23:08:42.616Z,14.50
2022-09-15T23:11:12.072Z,13.15
2022-09-15T23:13:40.039Z,13.68
2022-09-15T23:16:08.036Z,13.48
2022-09-15T23:18:35.416Z,13.95
2022-09-15T23:21:05.327Z,14.52
2022-09-15T23:25:58.438Z,13.40
2022-09-15T23:28:27.007Z,12.95
2022-09-15T23:30:55.313Z,13.80
2022-09-15T23:33:23.384Z,13.93
2022-09-15T23:35:50.407Z,14.18
2022-09-15T23:38:19.019Z,13.10
2022-09-15T23:40:47.314Z,13.38
2022-09-15T23:43:15.197Z,14.32
2022-09-15T23:45:43.075Z,13.63
2022-09-15T23:48:10.006Z,13.20
2022-09-15T23:50:38.215Z,13.93
2022-09-15T23:53:05.478Z,14.00
2022-09-15T23:55:32.547Z,12.70
2022-09-15T23:57:59.260Z,12.73
